sensor_id;sensor_type;location;lat;lon;timestamp;P1;durP1;ratioP1;P2;durP2;ratioP2
79712;SDS011;69206;51.420;5.400;2023-06-10T00:01:23;11.10;;;8.27;;
79712;SDS011;69206;51.420;5.400;2023-06-10T00:03:49;12.43;;;8.40;;
79712;SDS011;69206;51.420;5.400;2023-06-10T00:06:15;12.52;;;8.07;;
79712;SDS011;69206;51.420;5.400;2023-06-10T00:08:41;12.02;;;8.68;;
79712;SDS011;69206;51.420;5.400;2023-06-10T00:11:06;15.07;;;7.55;;
79712;SDS011;69206;51.420;5.400;2023-06-10T00:13:31;13.45;;;7.95;;
79712;SDS011;69206;51.420;5.400;2023-06-10T00:15:57;14.70;;;8.15;;
79712;SDS011;69206;51.420;5.400;2023-06-10T00:18:22;14.30;;;8.20;;
79712;SDS011;69206;51.420;5.400;2023-06-10T00:20:48;17.48;;;8.60;;
79712;SDS011;69206;51.420;5.400;2023-06-10T00:23:17;18.10;;;8.63;;
79712;SDS011;69206;51.420;5.400;2023-06-10T00:25:43;10.93;;;7.63;;
79712;SDS011;69206;51.420;5.400;2023-06-10T00:28:08;14.38;;;8.13;;
79712;SDS011;69206;51.420;5.400;2023-06-10T00:30:33;10.43;;;7.90;;
79712;SDS011;69206;51.420;5.400;2023-06-10T00:32:59;16.80;;;8.30;;
79712;SDS011;69206;51.420;5.400;2023-06-10T00:35:25;12.82;;;7.63;;
79712;SDS011;69206;51.420;5.400;2023-06-10T00:37:50;12.57;;;7.95;;
79712;SDS011;69206;51.420;5.400;2023-06-10T00:40:15;18.42;;;8.40;;
79712;SDS011;69206;51.420;5.400;2023-06-10T00:42:41;15.45;;;8.10;;
79712;SDS011;69206;51.420;5.400;2023-06-10T00:45:06;11.00;;;8.68;;
79712;SDS011;69206;51.420;5.400;2023-06-10T00:47:32;9.43;;;7.78;;
79712;SDS011;69206;51.420;5.400;2023-06-10T00:50:00;11.73;;;8.20;;
79712;SDS011;69206;51.420;5.400;2023-06-10T00:52:27;13.05;;;8.60;;
79712;SDS011;69206;51.420;5.400;2023-06-10T00:54:54;11.18;;;8.50;;
79712;SDS011;69206;51.420;5.400;2023-06-10T00:57:20;14.07;;;7.88;;
79712;SDS011;69206;51.420;5.400;2023-06-10T00:59:47;12.88;;;7.68;;
79712;SDS011;69206;51.420;5.400;2023-06-10T01:02:14;11.93;;;8.30;;
79712;SDS011;69206;51.420;5.400;2023-06-10T01:04:39;12.07;;;8.55;;
79712;SDS011;69206;51.420;5.400;2023-06-10T01:07:24;10.35;;;8.32;;
79712;SDS011;69206;51.420;5.400;2023-06-10T01:10:01;10.57;;;7.72;;
79712;SDS011;69206;51.420;5.400;2023-06-10T01:12:40;13.77;;;8.10;;
79712;SDS011;69206;51.420;5.400;2023-06-10T01:15:14;10.27;;;8.90;;
79712;SDS011;69206;51.420;5.400;2023-06-10T01:18:13;10.15;;;8.10;;
79712;SDS011;69206;51.420;5.400;2023-06-10T01:20:35;13.70;;;8.98;;
79712;SDS011;69206;51.420;5.400;2023-06-10T01:23:05;18.52;;;9.23;;
79712;SDS011;69206;51.420;5.400;2023-06-10T01:25:31;12.75;;;8.07;;
79712;SDS011;69206;51.420;5.400;2023-06-10T01:28:01;12.75;;;8.68;;
79712;SDS011;69206;51.420;5.400;2023-06-10T01:30:39;12.35;;;8.80;;
79712;SDS011;69206;51.420;5.400;2023-06-10T01:33:19;15.55;;;9.05;;
79712;SDS011;69206;51.420;5.400;2023-06-10T01:35:51;11.18;;;8.77;;
79712;SDS011;69206;51.420;5.400;2023-06-10T01:38:19;15.30;;;9.10;;
79712;SDS011;69206;51.420;5.400;2023-06-10T01:40:45;16.48;;;8.90;;
79712;SDS011;69206;51.420;5.400;2023-06-10T01:43:13;16.60;;;9.23;;
79712;SDS011;69206;51.420;5.400;2023-06-10T01:45:38;11.43;;;8.43;;
79712;SDS011;69206;51.420;5.400;2023-06-10T01:48:04;12.20;;;8.50;;
79712;SDS011;69206;51.420;5.400;2023-06-10T01:50:30;12.07;;;8.38;;
79712;SDS011;69206;51.420;5.400;2023-06-10T01:52:56;14.48;;;8.88;;
79712;SDS011;69206;51.420;5.400;2023-06-10T01:55:22;14.80;;;8.90;;
79712;SDS011;69206;51.420;5.400;2023-06-10T01:57:47;12.45;;;8.65;;
79712;SDS011;69206;51.420;5.400;2023-06-10T02:00:13;10.60;;;8.45;;
79712;SDS011;69206;51.420;5.400;2023-06-10T02:02:39;12.40;;;8.88;;
79712;SDS011;69206;51.420;5.400;2023-06-10T02:05:04;14.65;;;8.68;;
79712;SDS011;69206;51.420;5.400;2023-06-10T02:07:30;14.48;;;9.10;;
79712;SDS011;69206;51.420;5.400;2023-06-10T02:09:55;11.60;;;8.82;;
79712;SDS011;69206;51.420;5.400;2023-06-10T02:12:21;14.07;;;8.95;;
79712;SDS011;69206;51.420;5.400;2023-06-10T02:14:46;11.68;;;8.82;;
79712;SDS011;69206;51.420;5.400;2023-06-10T02:17:12;10.38;;;8.98;;
79712;SDS011;69206;51.420;5.400;2023-06-10T02:19:38;12.82;;;8.10;;
79712;SDS011;69206;51.420;5.400;2023-06-10T02:22:07;13.50;;;8.90;;
79712;SDS011;69206;51.420;5.400;2023-06-10T02:24:33;13.85;;;8.85;;
79712;SDS011;69206;51.420;5.400;2023-06-10T02:26:58;11.63;;;8.88;;
79712;SDS011;69206;51.420;5.400;2023-06-10T02:29:25;12.60;;;9.00;;
79712;SDS011;69206;51.420;5.400;2023-06-10T02:31:50;19.45;;;8.95;;
79712;SDS011;69206;51.420;5.400;2023-06-10T02:34:18;14.70;;;9.10;;
79712;SDS011;69206;51.420;5.400;2023-06-10T02:36:43;14.23;;;8.95;;
79712;SDS011;69206;51.420;5.400;2023-06-10T02:39:09;13.88;;;9.65;;
79712;SDS011;69206;51.420;5.400;2023-06-10T02:41:34;13.40;;;8.70;;
79712;SDS011;69206;51.420;5.400;2023-06-10T02:44:00;13.82;;;9.20;;
79712;SDS011;69206;51.420;5.400;2023-06-10T02:46:25;14.65;;;10.00;;
79712;SDS011;69206;51.420;5.400;2023-06-10T02:48:53;13.23;;;9.48;;
79712;SDS011;69206;51.420;5.400;2023-06-10T02:51:19;13.63;;;9.77;;
79712;SDS011;69206;51.420;5.400;2023-06-10T02:53:44;14.63;;;9.93;;
79712;SDS011;69206;51.420;5.400;2023-06-10T02:56:09;12.57;;;9.68;;
79712;SDS011;69206;51.420;5.400;2023-06-10T02:58:36;18.80;;;10.20;;
79712;SDS011;69206;51.420;5.400;2023-06-10T03:01:02;13.52;;;9.27;;
79712;SDS011;69206;51.420;5.400;2023-06-10T03:03:28;13.77;;;10.02;;
79712;SDS011;69206;51.420;5.400;2023-06-10T03:05:55;11.48;;;9.15;;
79712;SDS011;69206;51.420;5.400;2023-06-10T03:08:21;16.35;;;10.05;;
79712;SDS011;69206;51.420;5.400;2023-06-10T03:10:47;14.98;;;9.35;;
79712;SDS011;69206;51.420;5.400;2023-06-10T03:13:12;14.60;;;9.32;;
79712;SDS011;69206;51.420;5.400;2023-06-10T03:15:39;13.85;;;10.20;;
79712;SDS011;69206;51.420;5.400;2023-06-10T03:18:05;12.52;;;9.32;;
79712;SDS011;69206;51.420;5.400;2023-06-10T03:20:31;12.45;;;10.25;;
79712;SDS011;69206;51.420;5.400;2023-06-10T03:23:02;14.73;;;9.48;;
79712;SDS011;69206;51.420;5.400;2023-06-10T03:25:27;15.95;;;10.27;;
79712;SDS011;69206;51.420;5.400;2023-06-10T03:27:53;15.52;;;10.13;;
79712;SDS011;69206;51.420;5.400;2023-06-10T03:30:19;26.10;;;10.10;;
79712;SDS011;69206;51.420;5.400;2023-06-10T03:32:44;19.90;;;9.98;;
79712;SDS011;69206;51.420;5.400;2023-06-10T03:35:10;16.13;;;9.85;;
79712;SDS011;69206;51.420;5.400;2023-06-10T03:37:35;15.40;;;10.48;;
79712;SDS011;69206;51.420;5.400;2023-06-10T03:40:01;13.98;;;10.10;;
79712;SDS011;69206;51.420;5.400;2023-06-10T03:42:26;14.25;;;10.10;;
79712;SDS011;69206;51.420;5.400;2023-06-10T03:44:51;15.45;;;10.30;;
79712;SDS011;69206;51.420;5.400;2023-06-10T03:47:17;14.60;;;10.07;;
79712;SDS011;69206;51.420;5.400;2023-06-10T03:49:43;16.20;;;10.98;;
79712;SDS011;69206;51.420;5.400;2023-06-10T03:52:08;17.38;;;10.90;;
79712;SDS011;69206;51.420;5.400;2023-06-10T03:54:34;15.43;;;10.32;;
79712;SDS011;69206;51.420;5.400;2023-06-10T03:57:00;21.25;;;11.02;;
79712;SDS011;69206;51.420;5.400;2023-06-10T03:59:25;17.83;;;10.63;;
79712;SDS011;69206;51.420;5.400;2023-06-10T04:01:51;21.70;;;12.18;;
79712;SDS011;69206;51.420;5.400;2023-06-10T04:04:16;22.95;;;10.93;;
79712;SDS011;69206;51.420;5.400;2023-06-10T04:06:42;16.70;;;11.55;;
79712;SDS011;69206;51.420;5.400;2023-06-10T04:09:08;18.02;;;11.57;;
79712;SDS011;69206;51.420;5.400;2023-06-10T04:11:34;18.58;;;11.23;;
79712;SDS011;69206;51.420;5.400;2023-06-10T04:14:00;18.38;;;11.15;;
79712;SDS011;69206;51.420;5.400;2023-06-10T04:16:26;16.00;;;11.40;;
79712;SDS011;69206;51.420;5.400;2023-06-10T04:18:52;15.75;;;10.15;;
79712;SDS011;69206;51.420;5.400;2023-06-10T04:21:17;17.17;;;11.18;;
79712;SDS011;69206;51.420;5.400;2023-06-10T04:23:42;15.52;;;11.13;;
79712;SDS011;69206;51.420;5.400;2023-06-10T04:26:08;18.05;;;11.75;;
79712;SDS011;69206;51.420;5.400;2023-06-10T04:28:33;14.90;;;11.30;;
79712;SDS011;69206;51.420;5.400;2023-06-10T04:30:58;17.77;;;12.07;;
79712;SDS011;69206;51.420;5.400;2023-06-10T04:33:24;18.80;;;11.18;;
79712;SDS011;69206;51.420;5.400;2023-06-10T04:35:49;17.50;;;11.23;;
79712;SDS011;69206;51.420;5.400;2023-06-10T04:38:16;14.65;;;11.57;;
79712;SDS011;69206;51.420;5.400;2023-06-10T04:40:41;22.13;;;11.75;;
79712;SDS011;69206;51.420;5.400;2023-06-10T04:43:07;18.75;;;11.27;;
79712;SDS011;69206;51.420;5.400;2023-06-10T04:45:32;16.35;;;11.93;;
79712;SDS011;69206;51.420;5.400;2023-06-10T04:47:57;18.30;;;11.55;;
79712;SDS011;69206;51.420;5.400;2023-06-10T04:50:23;16.15;;;11.68;;
79712;SDS011;69206;51.420;5.400;2023-06-10T04:52:48;16.10;;;11.75;;
79712;SDS011;69206;51.420;5.400;2023-06-10T04:55:14;17.45;;;12.35;;
79712;SDS011;69206;51.420;5.400;2023-06-10T04:57:40;17.58;;;12.48;;
79712;SDS011;69206;51.420;5.400;2023-06-10T05:00:06;16.42;;;12.02;;
79712;SDS011;69206;51.420;5.400;2023-06-10T05:02:31;18.17;;;12.02;;
79712;SDS011;69206;51.420;5.400;2023-06-10T05:04:57;23.98;;;12.25;;
79712;SDS011;69206;51.420;5.400;2023-06-10T05:07:23;20.23;;;12.55;;
79712;SDS011;69206;51.420;5.400;2023-06-10T05:09:48;17.73;;;12.13;;
79712;SDS011;69206;51.420;5.400;2023-06-10T05:12:13;15.35;;;12.23;;
79712;SDS011;69206;51.420;5.400;2023-06-10T05:14:39;18.83;;;11.75;;
79712;SDS011;69206;51.420;5.400;2023-06-10T05:17:04;17.98;;;11.48;;
79712;SDS011;69206;51.420;5.400;2023-06-10T05:19:32;20.02;;;12.20;;
79712;SDS011;69206;51.420;5.400;2023-06-10T05:21:57;26.92;;;12.88;;
79712;SDS011;69206;51.420;5.400;2023-06-10T05:24:23;20.50;;;12.55;;
79712;SDS011;69206;51.420;5.400;2023-06-10T05:26:48;17.75;;;12.57;;
79712;SDS011;69206;51.420;5.400;2023-06-10T05:29:14;16.52;;;12.07;;
79712;SDS011;69206;51.420;5.400;2023-06-10T05:31:40;21.27;;;13.02;;
79712;SDS011;69206;51.420;5.400;2023-06-10T05:34:06;17.50;;;11.75;;
79712;SDS011;69206;51.420;5.400;2023-06-10T05:36:31;19.40;;;12.55;;
79712;SDS011;69206;51.420;5.400;2023-06-10T05:38:57;19.50;;;12.75;;
79712;SDS011;69206;51.420;5.400;2023-06-10T05:41:22;21.88;;;12.27;;
79712;SDS011;69206;51.420;5.400;2023-06-10T05:43:48;18.33;;;12.13;;
79712;SDS011;69206;51.420;5.400;2023-06-10T05:46:13;19.48;;;12.75;;
79712;SDS011;69206;51.420;5.400;2023-06-10T05:48:39;20.27;;;12.13;;
79712;SDS011;69206;51.420;5.400;2023-06-10T05:51:04;18.23;;;12.05;;
79712;SDS011;69206;51.420;5.400;2023-06-10T05:53:30;17.90;;;12.00;;
79712;SDS011;69206;51.420;5.400;2023-06-10T05:55:55;17.73;;;11.98;;
79712;SDS011;69206;51.420;5.400;2023-06-10T05:58:22;17.95;;;12.35;;
79712;SDS011;69206;51.420;5.400;2023-06-10T06:00:48;25.33;;;12.93;;
79712;SDS011;69206;51.420;5.400;2023-06-10T06:03:13;18.30;;;11.63;;
79712;SDS011;69206;51.420;5.400;2023-06-10T06:05:39;21.67;;;12.57;;
79712;SDS011;69206;51.420;5.400;2023-06-10T06:08:04;14.75;;;11.48;;
79712;SDS011;69206;51.420;5.400;2023-06-10T06:10:30;19.98;;;11.18;;
79712;SDS011;69206;51.420;5.400;2023-06-10T06:12:55;16.58;;;11.70;;
79712;SDS011;69206;51.420;5.400;2023-06-10T06:15:21;18.05;;;12.63;;
79712;SDS011;69206;51.420;5.400;2023-06-10T06:17:46;23.77;;;12.07;;
79712;SDS011;69206;51.420;5.400;2023-06-10T06:20:12;15.77;;;11.88;;
79712;SDS011;69206;51.420;5.400;2023-06-10T06:22:37;26.33;;;12.10;;
79712;SDS011;69206;51.420;5.400;2023-06-10T06:25:03;18.10;;;11.65;;
79712;SDS011;69206;51.420;5.400;2023-06-10T06:27:28;19.50;;;12.15;;
79712;SDS011;69206;51.420;5.400;2023-06-10T06:29:54;21.05;;;12.65;;
79712;SDS011;69206;51.420;5.400;2023-06-10T06:32:19;18.30;;;11.30;;
79712;SDS011;69206;51.420;5.400;2023-06-10T06:34:47;15.88;;;11.68;;
79712;SDS011;69206;51.420;5.400;2023-06-10T06:37:14;20.73;;;12.23;;
79712;SDS011;69206;51.420;5.400;2023-06-10T06:39:39;20.27;;;11.70;;
79712;SDS011;69206;51.420;5.400;2023-06-10T06:42:05;20.95;;;12.23;;
79712;SDS011;69206;51.420;5.400;2023-06-10T06:44:30;16.00;;;11.35;;
79712;SDS011;69206;51.420;5.400;2023-06-10T06:46:56;17.05;;;11.52;;
79712;SDS011;69206;51.420;5.400;2023-06-10T06:49:21;18.08;;;11.75;;
79712;SDS011;69206;51.420;5.400;2023-06-10T06:51:46;21.17;;;11.40;;
79712;SDS011;69206;51.420;5.400;2023-06-10T06:54:12;20.08;;;12.07;;
79712;SDS011;69206;51.420;5.400;2023-06-10T06:56:38;17.60;;;11.60;;
79712;SDS011;69206;51.420;5.400;2023-06-10T06:59:03;20.10;;;11.40;;
79712;SDS011;69206;51.420;5.400;2023-06-10T07:01:30;15.82;;;10.40;;
79712;SDS011;69206;51.420;5.400;2023-06-10T07:03:55;21.05;;;11.13;;
79712;SDS011;69206;51.420;5.400;2023-06-10T07:06:21;15.85;;;10.88;;
79712;SDS011;69206;51.420;5.400;2023-06-10T07:08:46;15.90;;;10.70;;
79712;SDS011;69206;51.420;5.400;2023-06-10T07:11:12;18.90;;;10.30;;
79712;SDS011;69206;51.420;5.400;2023-06-10T07:13:37;19.42;;;10.20;;
79712;SDS011;69206;51.420;5.400;2023-06-10T07:16:02;17.88;;;10.45;;
79712;SDS011;69206;51.420;5.400;2023-06-10T07:18:28;19.13;;;11.60;;
79712;SDS011;69206;51.420;5.400;2023-06-10T07:20:53;16.63;;;10.55;;
79712;SDS011;69206;51.420;5.400;2023-06-10T07:23:19;14.50;;;11.07;;
79712;SDS011;69206;51.420;5.400;2023-06-10T07:25:44;13.68;;;9.93;;
79712;SDS011;69206;51.420;5.400;2023-06-10T07:28:10;16.73;;;10.10;;
79712;SDS011;69206;51.420;5.400;2023-06-10T07:30:35;20.48;;;10.32;;
79712;SDS011;69206;51.420;5.400;2023-06-10T07:33:00;19.17;;;10.15;;
79712;SDS011;69206;51.420;5.400;2023-06-10T07:35:27;17.77;;;9.75;;
79712;SDS011;69206;51.420;5.400;2023-06-10T07:37:52;12.80;;;8.90;;
79712;SDS011;69206;51.420;5.400;2023-06-10T07:40:17;13.10;;;9.20;;
79712;SDS011;69206;51.420;5.400;2023-06-10T07:42:43;23.73;;;9.40;;
79712;SDS011;69206;51.420;5.400;2023-06-10T07:45:08;13.88;;;10.15;;
79712;SDS011;69206;51.420;5.400;2023-06-10T07:47:34;13.60;;;10.23;;
79712;SDS011;69206;51.420;5.400;2023-06-10T07:50:00;13.35;;;9.73;;
79712;SDS011;69206;51.420;5.400;2023-06-10T07:52:25;14.80;;;9.43;;
79712;SDS011;69206;51.420;5.400;2023-06-10T07:54:51;14.25;;;8.77;;
79712;SDS011;69206;51.420;5.400;2023-06-10T07:57:17;15.25;;;9.60;;
79712;SDS011;69206;51.420;5.400;2023-06-10T07:59:42;16.50;;;9.43;;
79712;SDS011;69206;51.420;5.400;2023-06-10T08:02:09;14.77;;;8.55;;
79712;SDS011;69206;51.420;5.400;2023-06-10T08:04:35;22.13;;;9.30;;
79712;SDS011;69206;51.420;5.400;2023-06-10T08:07:00;12.98;;;9.40;;
79712;SDS011;69206;51.420;5.400;2023-06-10T08:09:27;12.15;;;9.15;;
79712;SDS011;69206;51.420;5.400;2023-06-10T08:11:52;15.82;;;8.80;;
79712;SDS011;69206;51.420;5.400;2023-06-10T08:14:18;15.27;;;8.65;;
79712;SDS011;69206;51.420;5.400;2023-06-10T08:16:43;16.70;;;8.52;;
79712;SDS011;69206;51.420;5.400;2023-06-10T08:19:09;14.38;;;8.48;;
79712;SDS011;69206;51.420;5.400;2023-06-10T08:21:34;16.27;;;8.95;;
79712;SDS011;69206;51.420;5.400;2023-06-10T08:24:01;19.40;;;8.75;;
79712;SDS011;69206;51.420;5.400;2023-06-10T08:26:27;17.65;;;9.15;;
79712;SDS011;69206;51.420;5.400;2023-06-10T08:28:52;11.13;;;7.90;;
79712;SDS011;69206;51.420;5.400;2023-06-10T08:31:19;15.50;;;8.43;;
79712;SDS011;69206;51.420;5.400;2023-06-10T08:33:44;17.63;;;8.20;;
79712;SDS011;69206;51.420;5.400;2023-06-10T08:36:09;21.48;;;7.95;;
79712;SDS011;69206;51.420;5.400;2023-06-10T08:38:35;15.45;;;7.90;;
79712;SDS011;69206;51.420;5.400;2023-06-10T08:41:00;14.32;;;7.88;;
79712;SDS011;69206;51.420;5.400;2023-06-10T08:43:32;16.38;;;8.27;;
79712;SDS011;69206;51.420;5.400;2023-06-10T08:46:17;9.73;;;7.68;;
79712;SDS011;69206;51.420;5.400;2023-06-10T08:48:43;11.88;;;7.50;;
79712;SDS011;69206;51.420;5.400;2023-06-10T08:51:10;13.40;;;7.43;;
79712;SDS011;69206;51.420;5.400;2023-06-10T08:53:36;14.38;;;7.82;;
79712;SDS011;69206;51.420;5.400;2023-06-10T08:56:03;14.68;;;8.60;;
79712;SDS011;69206;51.420;5.400;2023-06-10T08:58:31;12.75;;;7.45;;
79712;SDS011;69206;51.420;5.400;2023-06-10T09:00:58;14.05;;;7.00;;
79712;SDS011;69206;51.420;5.400;2023-06-10T09:03:24;15.23;;;7.57;;
79712;SDS011;69206;51.420;5.400;2023-06-10T09:05:50;12.95;;;7.25;;
79712;SDS011;69206;51.420;5.400;2023-06-10T09:08:16;12.75;;;7.68;;
79712;SDS011;69206;51.420;5.400;2023-06-10T09:10:42;10.38;;;6.97;;
79712;SDS011;69206;51.420;5.400;2023-06-10T09:13:07;9.57;;;6.78;;
79712;SDS011;69206;51.420;5.400;2023-06-10T09:15:32;11.93;;;6.95;;
79712;SDS011;69206;51.420;5.400;2023-06-10T09:17:58;23.58;;;8.27;;
79712;SDS011;69206;51.420;5.400;2023-06-10T09:20:24;13.05;;;7.13;;
79712;SDS011;69206;51.420;5.400;2023-06-10T09:22:50;14.52;;;6.85;;
79712;SDS011;69206;51.420;5.400;2023-06-10T09:25:15;15.23;;;7.43;;
79712;SDS011;69206;51.420;5.400;2023-06-10T09:27:45;10.90;;;6.95;;
79712;SDS011;69206;51.420;5.400;2023-06-10T09:32:51;13.38;;;6.97;;
79712;SDS011;69206;51.420;5.400;2023-06-10T09:35:22;10.32;;;7.47;;
79712;SDS011;69206;51.420;5.400;2023-06-10T09:37:49;16.67;;;7.38;;
79712;SDS011;69206;51.420;5.400;2023-06-10T09:40:16;12.48;;;6.57;;
79712;SDS011;69206;51.420;5.400;2023-06-10T09:42:41;13.73;;;7.45;;
79712;SDS011;69206;51.420;5.400;2023-06-10T09:45:07;10.90;;;6.95;;
79712;SDS011;69206;51.420;5.400;2023-06-10T09:47:32;10.57;;;6.80;;
79712;SDS011;69206;51.420;5.400;2023-06-10T09:49:58;10.80;;;6.13;;
79712;SDS011;69206;51.420;5.400;2023-06-10T09:52:24;14.57;;;7.35;;
79712;SDS011;69206;51.420;5.400;2023-06-10T09:54:53;9.93;;;6.45;;
79712;SDS011;69206;51.420;5.400;2023-06-10T09:57:23;9.15;;;6.63;;
79712;SDS011;69206;51.420;5.400;2023-06-10T09:59:52;20.02;;;8.18;;
79712;SDS011;69206;51.420;5.400;2023-06-10T10:02:18;10.82;;;6.40;;
79712;SDS011;69206;51.420;5.400;2023-06-10T10:04:44;15.10;;;6.63;;
79712;SDS011;69206;51.420;5.400;2023-06-10T10:07:10;15.68;;;6.75;;
79712;SDS011;69206;51.420;5.400;2023-06-10T10:09:40;15.90;;;6.63;;
79712;SDS011;69206;51.420;5.400;2023-06-10T10:12:08;12.73;;;6.43;;
79712;SDS011;69206;51.420;5.400;2023-06-10T10:14:35;9.25;;;6.22;;
79712;SDS011;69206;51.420;5.400;2023-06-10T10:17:02;7.95;;;6.50;;
79712;SDS011;69206;51.420;5.400;2023-06-10T10:19:36;8.98;;;6.80;;
79712;SDS011;69206;51.420;5.400;2023-06-10T10:22:10;9.95;;;6.50;;
79712;SDS011;69206;51.420;5.400;2023-06-10T10:24:42;14.25;;;6.53;;
79712;SDS011;69206;51.420;5.400;2023-06-10T10:27:20;10.93;;;6.57;;
79712;SDS011;69206;51.420;5.400;2023-06-10T10:29:51;9.63;;;6.78;;
79712;SDS011;69206;51.420;5.400;2023-06-10T10:32:18;7.90;;;6.68;;
79712;SDS011;69206;51.420;5.400;2023-06-10T10:34:53;12.52;;;6.68;;
79712;SDS011;69206;51.420;5.400;2023-06-10T10:37:29;10.82;;;6.63;;
79712;SDS011;69206;51.420;5.400;2023-06-10T10:39:55;10.27;;;7.47;;
79712;SDS011;69206;51.420;5.400;2023-06-10T10:42:22;13.32;;;7.20;;
79712;SDS011;69206;51.420;5.400;2023-06-10T10:44:48;8.68;;;6.05;;
79712;SDS011;69206;51.420;5.400;2023-06-10T10:47:15;10.15;;;6.68;;
79712;SDS011;69206;51.420;5.400;2023-06-10T10:49:42;11.70;;;6.60;;
79712;SDS011;69206;51.420;5.400;2023-06-10T10:52:11;15.77;;;6.50;;
79712;SDS011;69206;51.420;5.400;2023-06-10T10:54:37;10.63;;;6.80;;
79712;SDS011;69206;51.420;5.400;2023-06-10T11:02:31;9.52;;;6.43;;
79712;SDS011;69206;51.420;5.400;2023-06-10T11:05:08;8.43;;;6.97;;
79712;SDS011;69206;51.420;5.400;2023-06-10T11:07:35;8.85;;;6.43;;
79712;SDS011;69206;51.420;5.400;2023-06-10T11:15:13;11.25;;;6.88;;
79712;SDS011;69206;51.420;5.400;2023-06-10T11:20:44;9.13;;;6.70;;
79712;SDS011;69206;51.420;5.400;2023-06-10T11:36:25;11.27;;;6.63;;
79712;SDS011;69206;51.420;5.400;2023-06-10T11:38:55;9.02;;;6.88;;
79712;SDS011;69206;51.420;5.400;2023-06-10T11:41:25;9.35;;;6.22;;
79712;SDS011;69206;51.420;5.400;2023-06-10T11:43:54;7.20;;;6.43;;
79712;SDS011;69206;51.420;5.400;2023-06-10T11:46:23;7.70;;;5.63;;
79712;SDS011;69206;51.420;5.400;2023-06-10T11:48:52;7.80;;;6.10;;
79712;SDS011;69206;51.420;5.400;2023-06-10T11:51:19;11.13;;;6.25;;
79712;SDS011;69206;51.420;5.400;2023-06-10T11:53:48;7.80;;;6.20;;
79712;SDS011;69206;51.420;5.400;2023-06-10T11:56:24;10.52;;;5.93;;
79712;SDS011;69206;51.420;5.400;2023-06-10T11:58:57;13.55;;;6.78;;
79712;SDS011;69206;51.420;5.400;2023-06-10T12:04:04;10.05;;;6.43;;
79712;SDS011;69206;51.420;5.400;2023-06-10T12:06:52;9.10;;;6.45;;
79712;SDS011;69206;51.420;5.400;2023-06-10T12:09:18;8.40;;;5.97;;
79712;SDS011;69206;51.420;5.400;2023-06-10T12:11:45;9.63;;;6.10;;
79712;SDS011;69206;51.420;5.400;2023-06-10T12:14:15;15.95;;;5.97;;
79712;SDS011;69206;51.420;5.400;2023-06-10T12:16:40;13.15;;;6.05;;
79712;SDS011;69206;51.420;5.400;2023-06-10T12:19:13;10.43;;;6.10;;
79712;SDS011;69206;51.420;5.400;2023-06-10T12:21:38;8.48;;;6.38;;
79712;SDS011;69206;51.420;5.400;2023-06-10T12:26:36;11.68;;;6.25;;
79712;SDS011;69206;51.420;5.400;2023-06-10T12:29:14;6.43;;;5.60;;
79712;SDS011;69206;51.420;5.400;2023-06-10T12:32:01;15.38;;;7.57;;
79712;SDS011;69206;51.420;5.400;2023-06-10T12:34:28;7.90;;;6.22;;
79712;SDS011;69206;51.420;5.400;2023-06-10T12:36:55;13.95;;;6.40;;
79712;SDS011;69206;51.420;5.400;2023-06-10T12:39:20;10.65;;;5.53;;
79712;SDS011;69206;51.420;5.400;2023-06-10T12:41:49;9.15;;;6.22;;
79712;SDS011;69206;51.420;5.400;2023-06-10T12:44:17;9.13;;;6.10;;
79712;SDS011;69206;51.420;5.400;2023-06-10T12:46:44;7.20;;;5.85;;
79712;SDS011;69206;51.420;5.400;2023-06-10T12:49:18;7.60;;;5.80;;
79712;SDS011;69206;51.420;5.400;2023-06-10T12:51:44;10.70;;;5.95;;
79712;SDS011;69206;51.420;5.400;2023-06-10T12:54:10;7.75;;;5.82;;
79712;SDS011;69206;51.420;5.400;2023-06-10T12:56:35;6.22;;;5.43;;
79712;SDS011;69206;51.420;5.400;2023-06-10T12:59:01;7.07;;;5.38;;
79712;SDS011;69206;51.420;5.400;2023-06-10T13:01:27;6.60;;;5.47;;
79712;SDS011;69206;51.420;5.400;2023-06-10T13:03:53;8.40;;;5.38;;
79712;SDS011;69206;51.420;5.400;2023-06-10T13:06:18;7.93;;;5.22;;
79712;SDS011;69206;51.420;5.400;2023-06-10T13:08:45;6.88;;;6.03;;
79712;SDS011;69206;51.420;5.400;2023-06-10T13:11:11;11.32;;;6.10;;
79712;SDS011;69206;51.420;5.400;2023-06-10T13:13:37;11.43;;;6.43;;
79712;SDS011;69206;51.420;5.400;2023-06-10T13:16:02;12.68;;;6.18;;
79712;SDS011;69206;51.420;5.400;2023-06-10T13:18:28;12.50;;;6.28;;
79712;SDS011;69206;51.420;5.400;2023-06-10T13:20:53;13.25;;;6.55;;
79712;SDS011;69206;51.420;5.400;2023-06-10T13:23:18;12.73;;;6.03;;
79712;SDS011;69206;51.420;5.400;2023-06-10T13:25:44;6.90;;;6.05;;
79712;SDS011;69206;51.420;5.400;2023-06-10T13:28:09;9.63;;;5.75;;
79712;SDS011;69206;51.420;5.400;2023-06-10T13:30:35;15.60;;;7.40;;
79712;SDS011;69206;51.420;5.400;2023-06-10T13:33:00;25.40;;;8.55;;
79712;SDS011;69206;51.420;5.400;2023-06-10T13:35:26;12.25;;;5.93;;
79712;SDS011;69206;51.420;5.400;2023-06-10T13:37:51;10.45;;;5.85;;
79712;SDS011;69206;51.420;5.400;2023-06-10T13:40:17;9.10;;;6.60;;
79712;SDS011;69206;51.420;5.400;2023-06-10T13:42:44;7.35;;;5.93;;
79712;SDS011;69206;51.420;5.400;2023-06-10T13:45:10;9.40;;;6.15;;
79712;SDS011;69206;51.420;5.400;2023-06-10T13:47:35;8.27;;;6.00;;
79712;SDS011;69206;51.420;5.400;2023-06-10T13:50:00;9.95;;;6.53;;
79712;SDS011;69206;51.420;5.400;2023-06-10T13:52:26;10.57;;;5.90;;
79712;SDS011;69206;51.420;5.400;2023-06-10T13:54:51;8.00;;;5.85;;
79712;SDS011;69206;51.420;5.400;2023-06-10T13:57:17;8.65;;;5.75;;
79712;SDS011;69206;51.420;5.400;2023-06-10T13:59:42;8.55;;;6.03;;
79712;SDS011;69206;51.420;5.400;2023-06-10T14:02:08;14.82;;;5.72;;
79712;SDS011;69206;51.420;5.400;2023-06-10T14:04:34;9.98;;;5.60;;
79712;SDS011;69206;51.420;5.400;2023-06-10T14:06:59;7.15;;;5.75;;
79712;SDS011;69206;51.420;5.400;2023-06-10T14:09:25;7.75;;;5.68;;
79712;SDS011;69206;51.420;5.400;2023-06-10T14:11:51;8.70;;;6.18;;
79712;SDS011;69206;51.420;5.400;2023-06-10T14:14:16;10.43;;;5.80;;
79712;SDS011;69206;51.420;5.400;2023-06-10T14:16:42;9.68;;;6.07;;
79712;SDS011;69206;51.420;5.400;2023-06-10T14:19:07;13.15;;;5.93;;
79712;SDS011;69206;51.420;5.400;2023-06-10T14:21:33;7.47;;;5.88;;
79712;SDS011;69206;51.420;5.400;2023-06-10T14:23:58;6.45;;;5.50;;
79712;SDS011;69206;51.420;5.400;2023-06-10T14:26:23;7.15;;;5.95;;
79712;SDS011;69206;51.420;5.400;2023-06-10T14:28:49;10.65;;;5.28;;
79712;SDS011;69206;51.420;5.400;2023-06-10T14:31:15;7.70;;;5.80;;
79712;SDS011;69206;51.420;5.400;2023-06-10T14:33:41;8.43;;;5.55;;
79712;SDS011;69206;51.420;5.400;2023-06-10T14:36:08;14.73;;;6.43;;
79712;SDS011;69206;51.420;5.400;2023-06-10T14:38:33;9.50;;;5.60;;
79712;SDS011;69206;51.420;5.400;2023-06-10T14:40:59;8.90;;;5.60;;
79712;SDS011;69206;51.420;5.400;2023-06-10T14:43:24;8.20;;;5.95;;
79712;SDS011;69206;51.420;5.400;2023-06-10T14:45:50;12.35;;;6.57;;
79712;SDS011;69206;51.420;5.400;2023-06-10T14:48:16;8.90;;;6.45;;
79712;SDS011;69206;51.420;5.400;2023-06-10T14:50:41;8.02;;;6.20;;
79712;SDS011;69206;51.420;5.400;2023-06-10T14:53:10;8.10;;;6.00;;
79712;SDS011;69206;51.420;5.400;2023-06-10T14:55:35;8.70;;;6.30;;
79712;SDS011;69206;51.420;5.400;2023-06-10T14:58:00;10.25;;;6.70;;
79712;SDS011;69206;51.420;5.400;2023-06-10T15:00:26;8.25;;;6.38;;
79712;SDS011;69206;51.420;5.400;2023-06-10T15:02:51;8.95;;;6.50;;
79712;SDS011;69206;51.420;5.400;2023-06-10T15:05:17;8.15;;;6.78;;